CW8420 Weather Reports


time (UTC)temp
C
wind
direction
speed
KPH
gust
KPH
rain 1hr
cm
rain 24hr
cm
rain mn
cm
humidity
%
barometer
mb
20200531053955 22 29 0.0 0.0 0.00 0.00 0.00 37 1014.1
20200531053500 22 29 0.0 0.0 0.00 0.00 0.00 37 1014.1
20200531053000 22 29 0.0 0.0 0.00 0.00 0.00 37 1014.1
20200531052500 22 29 0.0 0.0 0.00 0.00 0.00 36 1014.1
20200531052003 22 29 0.0 0.0 0.00 0.00 0.00 36 1014.3
20200531051506 23 29 0.0 0.0 0.00 0.00 0.00 36 1014.2
20200531051010 23 29 0.0 0.0 0.00 0.00 0.00 35 1014.2
20200531050512 23 29 0.0 0.0 0.00 0.00 0.00 35 1014.2
20200531050009 23 29 0.0 0.0 0.00 0.00 0.00 35 1014.1
20200531045509 23 29 0.0 0.0 0.00 0.00 0.00 35 1014.1
20200531045002 23 46 0.0 0.0 0.00 0.00 0.00 35 1014.1
20200531044443 23 46 0.0 0.0 0.00 0.00 0.00 35 1013.9
20200531043948 23 46 0.0 0.0 0.00 0.00 0.00 35 1013.9
20200531043457 24 28 0.0 0.0 0.00 0.00 0.00 34 1013.8
20200531043002 24 29 0.0 0.0 0.00 0.00 0.00 34 1013.7
20200531042501 24 29 0.0 0.0 0.00 0.00 0.00 34 1013.6
20200531042007 24 28 0.0 0.0 0.00 0.00 0.00 34 1013.5
20200531041510 25 29 0.0 0.0 0.00 0.00 0.00 33 1013.4
20200531041011 25 28 0.0 0.0 0.00 0.00 0.00 33 1013.3
20200531040509 25 28 0.0 0.0 0.00 0.00 0.00 32 1013.2
20200531040015 25 28 0.0 0.0 0.00 0.00 0.00 32 1013.4
20200531035518 25 28 0.0 0.0 0.00 0.00 0.00 31 1013.2
20200531035009 26 28 0.0 0.0 0.00 0.00 0.00 30 1013.2
20200531034512 26 277 0.0 0.0 0.00 0.00 0.00 30 1013.2
20200531033956 26 276 0.0 0.0 0.00 0.00 0.00 30 1013.2
20200531033458 26 275 0.0 0.0 0.00 0.00 0.00 29 1013.1
20200531032959 27 276 0.0 0.0 0.00 0.00 0.00 29 1013.1
20200531032501 27 276 0.0 0.0 0.00 0.00 0.00 29 1013.2
20200531032003 27 275 0.0 0.0 0.00 0.00 0.00 29 1013.2
20200531031453 27 276 0.0 1.6 0.00 0.00 0.00 28 1013.1
20200531030954 27 276 0.0 1.6 0.00 0.00 0.00 28 1013.0
20200531030500 27 314 0.0 12.9 0.00 0.00 0.00 27 1012.9
20200531025944 28 289 4.8 16.1 0.00 0.00 0.00 27 1012.9
20200531025450 28 323 4.8 14.5 0.00 0.00 0.00 27 1012.8
20200531024955 28 308 6.4 14.5 0.00 0.00 0.00 27 1012.7
20200531024512 28 308 4.8 14.5 0.00 0.00 0.00 27 1012.7
20200531023447 28 318 3.2 12.9 0.00 0.00 0.00 26 1012.6
20200531023158 28 281 3.2 12.9 0.00 0.00 0.00 26 1001.2
20200531022952 28 302 1.6 12.9 0.00 0.00 0.00 26 1012.4
20200531022453 28 294 0.0 8.0 0.00 0.00 0.00 26 1012.5
20200531021959 28 308 0.0 1.6 0.00 0.00 0.00 25 1012.5
20200531021621 28 318 0.0 1.6 0.00 0.00 0.00 25 1001.3
20200531021444 28 318 0.0 1.6 0.00 0.00 0.00 25 1012.6
20200531020952 29 319 0.0 12.9 0.00 0.00 0.00 24 1012.5
20200531020450 29 347 1.6 12.9 0.00 0.00 0.00 24 1012.4
20200531020147 28 314 0.0 14.5 0.00 0.00 0.00 23 1001.2
20200531015954 29 303 0.0 14.5 0.00 0.00 0.00 23 1012.5
20200531015508 29 312 6.4 20.9 0.00 0.00 0.00 23 1012.5
20200531015008 29 285 8.0 20.9 0.00 0.00 0.00 24 1012.5
20200531014508 29 285 0.0 1.6 0.00 0.00 0.00 26 1012.4
20200531014007 29 317 0.0 0.0 0.00 0.00 0.00 26 1012.3
20200531013455 29 317 0.0 0.0 0.00 0.00 0.00 26 1012.1
20200531013135 29 317 0.0 0.0 0.00 0.00 0.00 26 1000.7
20200531012942 30 317 0.0 0.0 0.00 0.00 0.00 26 1011.9
20200531012446 30 317 0.0 0.0 0.00 0.00 0.00 26 1011.9
20200531012002 30 344 0.0 0.0 0.00 0.00 0.00 26 1011.9
20200531011453 30 351 0.0 0.0 0.00 0.00 0.00 26 1011.8
20200531010958 30 351 0.0 0.0 0.00 0.00 0.00 26 1011.7
20200531010442 30 331 0.0 0.0 0.00 0.00 0.00 26 1011.6
20200531005947 30 337 0.0 1.6 0.00 0.00 0.00 25 1011.5
20200531005502 30 334 0.0 1.6 0.00 0.00 0.00 25 1011.5
20200531005006 30 327 0.0 1.6 0.00 0.00 0.00 25 1011.4
20200531004458 30 318 0.0 4.8 0.00 0.00 0.00 25 1011.4
20200531003959 31 313 0.0 19.3 0.00 0.00 0.00 25 1011.5
20200531003455 31 287 4.8 19.3 0.00 0.00 0.00 25 1011.5
20200531003016 31 294 3.2 16.1 0.00 0.00 0.00 25 1011.5
20200531002459 31 306 4.8 16.1 0.00 0.00 0.00 24 1011.5
20200531001747 31 289 8.0 16.1 0.00 0.00 0.00 23 1000.4
20200531001159 32 266 0.0 0.0 0.00 0.00 0.00 23 1011.8
20200530213007 37 121 0.0 11.3 0.00 0.00 0.00 15 1013.3
20200530212511 37 136 1.6 11.3 0.00 0.00 0.00 16 1013.3
20200530212004 37 167 1.6 4.8 0.00 0.00 0.00 16 1013.5
20200530211514 37 159 1.6 24.1 0.00 0.00 0.00 16 1013.6
20200530211039 37 155 3.2 24.1 0.00 0.00 0.00 16 1013.7
20200530210522 37 169 0.0 6.4 0.00 0.00 0.00 15 1013.7
20200530210008 37 148 1.6 6.4 0.00 0.00 0.00 15 1013.8
20200530205513 38 198 0.0 12.9 0.00 0.00 0.00 15 1013.9
20200530205008 37 166 0.0 12.9 0.00 0.00 0.00 15 1014.0
20200530204509 37 143 0.0 3.2 0.00 0.00 0.00 15 1014.1
20200530204003 37 167 0.0 4.8 0.00 0.00 0.00 16 1014.3
20200530203513 37 249 1.6 6.4 0.00 0.00 0.00 17 1014.3
20200530203011 37 94 1.6 6.4 0.00 0.00 0.00 15 1014.3
20200530202506 37 153 1.6 6.4 0.00 0.00 0.00 16 1014.3
20200530202005 37 193 0.0 6.4 0.00 0.00 0.00 16 1014.3
20200530201643 36 166 1.6 8.0 0.00 0.00 0.00 16 1003.1
20200530201450 37 137 1.6 16.1 0.00 0.00 0.00 16 1014.5
20200530200953 36 218 0.0 16.1 0.00 0.00 0.00 16 1014.5
20200530200503 36 141 0.0 14.5 0.00 0.00 0.00 16 1014.7
20200530195954 36 158 1.6 14.5 0.00 0.00 0.00 16 1014.7
20200530195456 36 160 1.6 16.1 0.00 0.00 0.00 16 1014.7
20200530195002 36 135 3.2 16.1 0.00 0.00 0.00 16 1014.9
20200530194449 36 177 1.6 9.7 0.00 0.00 0.00 17 1014.8
20200530194001 36 125 0.0 4.8 0.00 0.00 0.00 17 1014.9
20200530193510 36 183 1.6 8.0 0.00 0.00 0.00 16 1015.0
20200530193014 36 177 0.0 8.0 0.00 0.00 0.00 17 1015.0
20200530192500 36 164 1.6 6.4 0.00 0.00 0.00 17 1015.2
20200530192002 35 178 0.0 16.1 0.00 0.00 0.00 18 1015.2
20200530191503 35 177 3.2 16.1 0.00 0.00 0.00 16 1015.3
20200530191004 36 163 0.0 6.4 0.00 0.00 0.00 17 1015.4
20200530190502 36 136 1.6 8.0 0.00 0.00 0.00 16 1015.5
20200530190002 36 171 0.0 22.5 0.00 0.00 0.00 16 1015.6
20200530185447 36 206 1.6 22.5 0.00 0.00 0.00 17 1015.6
20200530184953 36 150 1.6 12.9 0.00 0.00 0.00 17 1015.6
20200530184453 36 159 1.6 19.3 0.00 0.00 0.00 17 1015.7
20200530183958 36 179 1.6 19.3 0.00 0.00 0.00 17 1015.7
20200530183443 36 189 1.6 12.9 0.00 0.00 0.00 16 1015.8
20200530182945 36 169 1.6 16.1 0.00 0.00 0.00 17 1015.8
20200530182450 35 127 3.2 16.1 0.00 0.00 0.00 17 1016.0
20200530181957 35 181 1.6 14.5 0.00 0.00 0.00 17 1016.0
20200530181445 35 152 1.6 14.5 0.00 0.00 0.00 17 1016.0
20200530180957 35 151 1.6 11.3 0.00 0.00 0.00 17 1016.1
20200530180452 35 158 1.6 19.3 0.00 0.00 0.00 17 1016.0
20200530180006 35 155 3.2 14.5 0.00 0.00 0.00 17 1016.1
20200530175456 35 160 4.8 17.7 0.00 0.00 0.00 17 1016.3
20200530175007 35 164 4.8 19.3 0.00 0.00 0.00 17 1016.1
20200530174518 35 147 0.0 14.5 0.00 0.00 0.00 19 1016.3
20200530174009 34 189 1.6 14.5 0.00 0.00 0.00 20 1016.3
20200530173512 34 155 1.6 11.3 0.00 0.00 0.00 20 1016.3
20200530173012 34 108 1.6 9.7 0.00 0.00 0.00 20 1016.4
20200530172511 33 148 1.6 9.7 0.00 0.00 0.00 20 1016.3
20200530172010 33 164 1.6 6.4 0.00 0.00 0.00 21 1016.3
20200530171510 33 158 1.6 12.9 0.00 0.00 0.00 20 1016.4
20200530171011 33 168 1.6 12.9 0.00 0.00 0.00 21 1016.4
20200530170512 32 148 1.6 12.9 0.00 0.00 0.00 22 1016.5
20200530170011 32 190 3.2 12.9 0.00 0.00 0.00 22 1016.5
20200530165512 32 174 1.6 8.0 0.00 0.00 0.00 22 1016.6
20200530165014 31 154 0.0 4.8 0.00 0.00 0.00 22 1016.6
20200530164519 31 163 0.0 6.4 0.00 0.00 0.00 21 1016.6
20200530164019 32 159 1.6 6.4 0.00 0.00 0.00 20 1016.6
20200530163519 32 204 0.0 4.8 0.00 0.00 0.00 22 1016.6
20200530163017 33 174 0.0 8.0 0.00 0.00 0.00 21 1016.6
20200530162517 33 162 0.0 12.9 0.00 0.00 0.00 20 1016.5
20200530162018 33 148 1.6 12.9 0.00 0.00 0.00 23 1016.6
20200530161520 32 168 1.6 6.4 0.00 0.00 0.00 23 1016.6
20200530161022 32 153 0.0 6.4 0.00 0.00 0.00 24 1016.7
20200530160519 31 152 1.6 6.4 0.00 0.00 0.00 26 1016.7
20200530160020 31 170 0.0 3.2 0.00 0.00 0.00 25 1016.7
20200530155517 31 208 0.0 12.9 0.00 0.00 0.00 25 1016.8
20200530154956 31 125 0.0 12.9 0.00 0.00 0.00 25 1016.8
20200530154500 31 186 0.0 4.8 0.00 0.00 0.00 26 1016.7
20200530153959 31 156 0.0 1.6 0.00 0.00 0.00 27 1016.8
20200530153500 30 196 0.0 3.2 0.00 0.00 0.00 29 1016.8
20200530153001 30 118 0.0 3.2 0.00 0.00 0.00 29 1016.9
20200530152503 30 106 0.0 1.6 0.00 0.00 0.00 29 1016.9
20200530152000 30 264 0.0 0.0 0.00 0.00 0.00 32 1016.8
20200530151518 29 162 0.0 0.0 0.00 0.00 0.00 31 1016.8
20200530151018 28 162 0.0 0.0 0.00 0.00 0.00 33 1016.7
20200530150517 28 162 0.0 0.0 0.00 0.00 0.00 34 1016.8
20200530150018 27 162 0.0 0.0 0.00 0.00 0.00 35 1016.8
20200530145517 27 162 0.0 0.0 0.00 0.00 0.00 37 1016.8
20200530145014 26 162 0.0 0.0 0.00 0.00 0.00 37 1016.9
20200530144512 26 162 0.0 0.0 0.00 0.00 0.00 38 1016.9
20200530144014 25 162 0.0 0.0 0.00 0.00 0.00 40 1016.8
20200530143514 25 162 0.0 0.0 0.00 0.00 0.00 42 1016.8
20200530143015 24 162 0.0 0.0 0.00 0.00 0.00 43 1016.7
20200530142516 23 156 0.0 0.0 0.00 0.00 0.00 44 1016.7
20200530142012 23 154 0.0 0.0 0.00 0.00 0.00 46 1016.6
20200530141512 22 154 0.0 0.0 0.00 0.00 0.00 49 1016.6
20200530141004 21 151 0.0 0.0 0.00 0.00 0.00 50 1016.6
20200530140447 21 97 0.0 0.0 0.00 0.00 0.00 55 1016.5
20200530062959 26 163 0.0 0.0 0.00 0.00 0.00 35 1017.2
20200530062502 26 164 0.0 9.7 0.00 0.00 0.00 34 1017.3
20200530062008 26 174 1.6 12.9 0.00 0.00 0.00 34 1017.4
20200530061513 26 177 4.8 17.7 0.00 0.00 0.00 33 1017.3
20200530061019 27 162 8.0 17.7 0.00 0.00 0.00 33 1017.2
20200530060517 27 160 6.4 14.5 0.00 0.00 0.00 33 1017.3
20200530060017 27 145 0.0 12.9 0.00 0.00 0.00 32 1017.3
20200530055517 27 162 1.6 12.9 0.00 0.00 0.00 31 1017.3
20200530054946 27 182 0.0 4.8 0.00 0.00 0.00 30 1017.3
20200530054637 27 175 0.0 8.0 0.00 0.00 0.00 29 1006.8
20200530054454 27 217 0.0 9.7 0.00 0.00 0.00 29 1017.2